sensor_id;sensor_type;location;lat;lon;timestamp;pressure;altitude;pressure_sealevel;temperature;humidity
20612;BME280;10465;42.686;23.364;2023-08-20T00:00:05;95238.00;;;25.35;51.36
20612;BME280;10465;42.686;23.364;2023-08-20T00:02:33;95262.38;;;25.50;50.93
20612;BME280;10465;42.686;23.364;2023-08-20T00:05:01;95259.28;;;25.48;51.17
20612;BME280;10465;42.686;23.364;2023-08-20T00:07:27;95260.44;;;25.43;51.10
20612;BME280;10465;42.686;23.364;2023-08-20T00:09:53;95256.59;;;25.40;51.04
20612;BME280;10465;42.686;23.364;2023-08-20T00:12:18;95262.03;;;25.40;51.38
20612;BME280;10465;42.686;23.364;2023-08-20T00:14:57;95257.38;;;25.41;51.15
20612;BME280;10465;42.686;23.364;2023-08-20T00:17:33;95248.06;;;25.42;51.54
20612;BME280;10465;42.686;23.364;2023-08-20T00:19:59;95249.25;;;25.41;51.63
20612;BME280;10465;42.686;23.364;2023-08-20T00:22:25;95231.06;;;25.24;51.94
20612;BME280;10465;42.686;23.364;2023-08-20T00:24:52;95255.44;;;25.34;52.13
20612;BME280;10465;42.686;23.364;2023-08-20T00:27:18;95259.31;;;25.33;52.12
20612;BME280;10465;42.686;23.364;2023-08-20T00:29:43;95238.81;;;25.07;52.98
20612;BME280;10465;42.686;23.364;2023-08-20T00:32:09;95262.03;;;25.19;52.96
20612;BME280;10465;42.686;23.364;2023-08-20T00:34:34;95256.25;;;25.24;52.34
20612;BME280;10465;42.686;23.364;2023-08-20T00:37:01;95240.00;;;25.13;52.27
20612;BME280;10465;42.686;23.364;2023-08-20T00:39:26;95248.13;;;25.24;51.94
20612;BME280;10465;42.686;23.364;2023-08-20T00:41:52;95238.81;;;25.22;51.97
20612;BME280;10465;42.686;23.364;2023-08-20T00:44:18;95243.84;;;25.27;52.01
20612;BME280;10465;42.686;23.364;2023-08-20T00:46:43;95251.97;;;25.30;51.94
20612;BME280;10465;42.686;23.364;2023-08-20T00:49:08;95252.75;;;25.27;52.01
20612;BME280;10465;42.686;23.364;2023-08-20T00:51:34;95240.78;;;25.14;51.95
20612;BME280;10465;42.686;23.364;2023-08-20T00:54:02;95253.53;;;25.21;51.98
20612;BME280;10465;42.686;23.364;2023-08-20T00:56:28;95246.94;;;25.18;52.00
20612;BME280;10465;42.686;23.364;2023-08-20T00:58:54;95226.84;;;25.05;51.87
20612;BME280;10465;42.686;23.364;2023-08-20T01:01:21;95244.25;;;25.18;52.68
20612;BME280;10465;42.686;23.364;2023-08-20T01:03:47;95256.25;;;25.21;51.92
20612;BME280;10465;42.686;23.364;2023-08-20T01:09:07;95250.03;;;25.06;53.27
20612;BME280;10465;42.686;23.364;2023-08-20T01:11:39;95246.56;;;25.05;53.39
20612;BME280;10465;42.686;23.364;2023-08-20T01:14:15;95252.75;;;25.06;53.21
20612;BME280;10465;42.686;23.364;2023-08-20T01:16:41;95250.03;;;25.06;52.98
20612;BME280;10465;42.686;23.364;2023-08-20T01:19:10;95246.56;;;25.05;52.65
20612;BME280;10465;42.686;23.364;2023-08-20T01:22:11;95254.69;;;25.05;52.90
20612;BME280;10465;42.686;23.364;2023-08-20T01:30:14;95230.69;;;24.79;54.22
20612;BME280;10465;42.686;23.364;2023-08-20T01:32:41;95254.31;;;24.92;53.85
20612;BME280;10465;42.686;23.364;2023-08-20T01:35:12;95245.41;;;24.88;54.48
20612;BME280;10465;42.686;23.364;2023-08-20T01:37:41;95225.31;;;24.72;54.10
20612;BME280;10465;42.686;23.364;2023-08-20T01:40:08;95243.47;;;24.82;54.46
20612;BME280;10465;42.686;23.364;2023-08-20T01:42:39;95231.88;;;24.78;55.00
20612;BME280;10465;42.686;23.364;2023-08-20T01:45:05;95236.13;;;24.79;54.84
20612;BME280;10465;42.686;23.364;2023-08-20T01:47:32;95235.75;;;24.77;54.89
20612;BME280;10465;42.686;23.364;2023-08-20T01:49:58;95222.56;;;24.75;54.94
20612;BME280;10465;42.686;23.364;2023-08-20T01:52:24;95217.19;;;24.72;54.28
20612;BME280;10465;42.686;23.364;2023-08-20T01:54:49;95211.78;;;24.68;54.31
20612;BME280;10465;42.686;23.364;2023-08-20T01:57:15;95218.34;;;24.81;54.61
20612;BME280;10465;42.686;23.364;2023-08-20T01:59:40;95217.56;;;24.84;53.78
20612;BME280;10465;42.686;23.364;2023-08-20T02:02:06;95218.34;;;24.81;54.03
20612;BME280;10465;42.686;23.364;2023-08-20T02:04:32;95212.53;;;24.79;53.93
20612;BME280;10465;42.686;23.364;2023-08-20T02:06:57;95205.97;;;24.84;53.97
20612;BME280;10465;42.686;23.364;2023-08-20T02:09:23;95195.50;;;24.75;54.02
20612;BME280;10465;42.686;23.364;2023-08-20T02:11:50;95212.16;;;24.88;53.81
20612;BME280;10465;42.686;23.364;2023-08-20T02:14:15;95203.63;;;24.86;53.94
20612;BME280;10465;42.686;23.364;2023-08-20T02:16:41;95188.94;;;24.80;53.84
20612;BME280;10465;42.686;23.364;2023-08-20T02:19:06;95195.13;;;24.87;54.22
20612;BME280;10465;42.686;23.364;2023-08-20T02:21:33;95188.94;;;24.76;54.29
20612;BME280;10465;42.686;23.364;2023-08-20T02:23:58;95186.25;;;24.73;54.10
20612;BME280;10465;42.686;23.364;2023-08-20T02:26:24;95195.13;;;24.84;54.16
20612;BME280;10465;42.686;23.364;2023-08-20T02:28:49;95196.28;;;24.86;54.00
20612;BME280;10465;42.686;23.364;2023-08-20T02:31:14;95195.50;;;24.86;54.15
20612;BME280;10465;42.686;23.364;2023-08-20T02:33:40;95167.28;;;24.69;53.93
20612;BME280;10465;42.686;23.364;2023-08-20T02:36:06;95201.31;;;24.84;54.38
20612;BME280;10465;42.686;23.364;2023-08-20T02:38:31;95182.00;;;24.72;54.50
20612;BME280;10465;42.686;23.364;2023-08-20T02:40:57;95199.38;;;24.81;54.31
20612;BME280;10465;42.686;23.364;2023-08-20T02:43:23;95209.44;;;24.81;54.49
20612;BME280;10465;42.686;23.364;2023-08-20T02:45:49;95187.41;;;24.61;54.71
20612;BME280;10465;42.686;23.364;2023-08-20T02:48:14;95182.00;;;24.57;54.81
20612;BME280;10465;42.686;23.364;2023-08-20T02:50:40;95210.97;;;24.71;55.14
20612;BME280;10465;42.686;23.364;2023-08-20T02:53:06;95205.19;;;24.69;55.56
20612;BME280;10465;42.686;23.364;2023-08-20T02:55:33;95200.16;;;24.64;55.49
20612;BME280;10465;42.686;23.364;2023-08-20T02:57:59;95206.72;;;24.63;56.08
20612;BME280;10465;42.686;23.364;2023-08-20T03:00:24;95195.13;;;24.41;56.53
20612;BME280;10465;42.686;23.364;2023-08-20T03:02:50;95211.38;;;24.45;56.95
20612;BME280;10465;42.686;23.364;2023-08-20T03:05:16;95210.19;;;24.35;57.12
20612;BME280;10465;42.686;23.364;2023-08-20T03:07:41;95169.94;;;24.08;57.41
20612;BME280;10465;42.686;23.364;2023-08-20T03:10:07;95217.53;;;24.31;57.50
20612;BME280;10465;42.686;23.364;2023-08-20T03:12:32;95208.63;;;24.23;57.31
20612;BME280;10465;42.686;23.364;2023-08-20T03:14:59;95203.56;;;24.18;57.16
20612;BME280;10465;42.686;23.364;2023-08-20T03:17:25;95189.25;;;24.14;56.96
20612;BME280;10465;42.686;23.364;2023-08-20T03:19:57;95211.31;;;24.23;57.59
20612;BME280;10465;42.686;23.364;2023-08-20T03:22:25;95204.75;;;24.21;57.45
20612;BME280;10465;42.686;23.364;2023-08-20T03:24:51;95215.56;;;24.21;57.43
20612;BME280;10465;42.686;23.364;2023-08-20T03:27:17;95202.41;;;24.15;57.62
20612;BME280;10465;42.686;23.364;2023-08-20T03:29:43;95195.06;;;24.16;57.76
20612;BME280;10465;42.686;23.364;2023-08-20T03:32:08;95213.59;;;24.14;58.05
20612;BME280;10465;42.686;23.364;2023-08-20T03:34:34;95210.13;;;24.10;58.10
20612;BME280;10465;42.686;23.364;2023-08-20T03:36:59;95217.06;;;24.04;58.30
20612;BME280;10465;42.686;23.364;2023-08-20T03:39:25;95214.72;;;24.02;58.75
20612;BME280;10465;42.686;23.364;2023-08-20T03:41:52;95211.25;;;24.02;59.01
20612;BME280;10465;42.686;23.364;2023-08-20T03:44:18;95205.84;;;23.95;59.51
20612;BME280;10465;42.686;23.364;2023-08-20T03:46:43;95212.03;;;23.95;59.51
20612;BME280;10465;42.686;23.364;2023-08-20T03:49:09;95203.13;;;23.87;59.75
20612;BME280;10465;42.686;23.364;2023-08-20T03:51:35;95198.88;;;23.90;59.66
20612;BME280;10465;42.686;23.364;2023-08-20T03:54:01;95200.81;;;23.93;59.41
20612;BME280;10465;42.686;23.364;2023-08-20T03:56:26;95186.88;;;23.77;59.68
20612;BME280;10465;42.686;23.364;2023-08-20T03:58:52;95201.16;;;23.77;60.32
20612;BME280;10465;42.686;23.364;2023-08-20T04:01:18;95193.81;;;23.74;60.34
20612;BME280;10465;42.686;23.364;2023-08-20T04:03:45;95201.53;;;23.76;60.29
20612;BME280;10465;42.686;23.364;2023-08-20T04:06:11;95190.69;;;23.68;60.51
20612;BME280;10465;42.686;23.364;2023-08-20T04:08:36;95176.34;;;23.61;60.85
20612;BME280;10465;42.686;23.364;2023-08-20T04:11:02;95179.84;;;23.58;60.80
20612;BME280;10465;42.686;23.364;2023-08-20T04:13:29;95183.75;;;23.67;61.01
20612;BME280;10465;42.686;23.364;2023-08-20T04:15:54;95195.28;;;23.64;61.01
20612;BME280;10465;42.686;23.364;2023-08-20T04:18:20;95188.31;;;23.60;60.59
20612;BME280;10465;42.686;23.364;2023-08-20T04:20:45;95202.25;;;23.65;60.86
20612;BME280;10465;42.686;23.364;2023-08-20T04:23:11;95203.47;;;23.72;61.11
20612;BME280;10465;42.686;23.364;2023-08-20T04:25:36;95180.59;;;23.55;61.51
20612;BME280;10465;42.686;23.364;2023-08-20T04:28:02;95207.69;;;23.69;61.64
20612;BME280;10465;42.686;23.364;2023-08-20T04:30:27;95202.28;;;23.73;61.66
20612;BME280;10465;42.686;23.364;2023-08-20T04:32:53;95207.31;;;23.71;62.22
20612;BME280;10465;42.686;23.364;2023-08-20T04:35:18;95165.50;;;23.43;62.29
20612;BME280;10465;42.686;23.364;2023-08-20T04:37:43;95164.31;;;23.44;62.45
20612;BME280;10465;42.686;23.364;2023-08-20T04:40:09;95186.78;;;23.55;62.29
20612;BME280;10465;42.686;23.364;2023-08-20T04:42:35;95182.91;;;23.60;62.46
20612;BME280;10465;42.686;23.364;2023-08-20T04:45:00;95196.16;;;23.79;62.29
20612;BME280;10465;42.686;23.364;2023-08-20T04:47:26;95209.28;;;23.81;62.45
20612;BME280;10465;42.686;23.364;2023-08-20T04:49:52;95200.78;;;23.79;62.57
20612;BME280;10465;42.686;23.364;2023-08-20T04:52:17;95211.59;;;23.75;63.03
20612;BME280;10465;42.686;23.364;2023-08-20T04:54:44;95192.63;;;23.68;63.59
20612;BME280;10465;42.686;23.364;2023-08-20T04:57:09;95205.41;;;23.78;64.04
20612;BME280;10465;42.686;23.364;2023-08-20T04:59:35;95199.97;;;23.71;63.91
20612;BME280;10465;42.686;23.364;2023-08-20T05:02:00;95207.00;;;23.93;62.70
20612;BME280;10465;42.686;23.364;2023-08-20T05:04:25;95213.59;;;24.00;62.42
20612;BME280;10465;42.686;23.364;2023-08-20T05:06:51;95216.66;;;23.91;62.11
20612;BME280;10465;42.686;23.364;2023-08-20T05:09:16;95218.22;;;24.03;61.73
20612;BME280;10465;42.686;23.364;2023-08-20T05:11:42;95219.38;;;24.05;61.79
20612;BME280;10465;42.686;23.364;2023-08-20T05:14:07;95215.91;;;24.01;61.36
20612;BME280;10465;42.686;23.364;2023-08-20T05:16:33;95216.69;;;24.09;61.50
20612;BME280;10465;42.686;23.364;2023-08-20T05:18:58;95223.66;;;24.13;61.65
20612;BME280;10465;42.686;23.364;2023-08-20T05:21:24;95218.22;;;24.10;61.60
20612;BME280;10465;42.686;23.364;2023-08-20T05:23:49;95219.81;;;24.11;61.27
20612;BME280;10465;42.686;23.364;2023-08-20T05:26:15;95227.13;;;24.10;61.49
20612;BME280;10465;42.686;23.364;2023-08-20T05:28:40;95210.13;;;24.03;61.74
20612;BME280;10465;42.686;23.364;2023-08-20T05:31:05;95236.03;;;24.18;61.82
20612;BME280;10465;42.686;23.364;2023-08-20T05:33:31;95233.69;;;24.13;62.27
20612;BME280;10465;42.686;23.364;2023-08-20T05:35:57;95226.75;;;24.08;62.15
20612;BME280;10465;42.686;23.364;2023-08-20T05:38:23;95211.25;;;23.98;62.62
20612;BME280;10465;42.686;23.364;2023-08-20T05:40:49;95218.22;;;24.06;62.99
20612;BME280;10465;42.686;23.364;2023-08-20T05:43:14;95226.34;;;24.13;63.07
20612;BME280;10465;42.686;23.364;2023-08-20T05:45:40;95239.16;;;24.24;62.58
20612;BME280;10465;42.686;23.364;2023-08-20T05:48:05;95229.03;;;24.10;62.78
20612;BME280;10465;42.686;23.364;2023-08-20T05:50:31;95237.59;;;24.26;62.70
20612;BME280;10465;42.686;23.364;2023-08-20T05:52:56;95229.50;;;24.23;62.54
20612;BME280;10465;42.686;23.364;2023-08-20T05:55:22;95222.88;;;24.16;62.73
20612;BME280;10465;42.686;23.364;2023-08-20T05:57:47;95241.47;;;24.29;61.92
20612;BME280;10465;42.686;23.364;2023-08-20T06:00:12;95235.66;;;24.34;61.91
20612;BME280;10465;42.686;23.364;2023-08-20T06:02:39;95248.06;;;24.42;62.27
20612;BME280;10465;42.686;23.364;2023-08-20T06:05:04;95224.09;;;24.37;62.54
20612;BME280;10465;42.686;23.364;2023-08-20T06:07:30;95228.38;;;24.49;61.67
20612;BME280;10465;42.686;23.364;2023-08-20T06:09:56;95231.47;;;24.54;61.62
20612;BME280;10465;42.686;23.364;2023-08-20T06:12:23;95251.19;;;24.65;60.61
20612;BME280;10465;42.686;23.364;2023-08-20T06:14:50;95241.53;;;24.61;61.06
20612;BME280;10465;42.686;23.364;2023-08-20T06:17:15;95242.72;;;24.63;60.87
20612;BME280;10465;42.686;23.364;2023-08-20T06:19:41;95217.94;;;24.58;60.36
20612;BME280;10465;42.686;23.364;2023-08-20T06:22:06;95235.38;;;24.67;59.39
20612;BME280;10465;42.686;23.364;2023-08-20T06:24:32;95254.28;;;24.71;59.82
20612;BME280;10465;42.686;23.364;2023-08-20T06:26:57;95254.69;;;24.80;59.64
20612;BME280;10465;42.686;23.364;2023-08-20T06:29:22;95256.25;;;24.88;59.96
20612;BME280;10465;42.686;23.364;2023-08-20T06:31:48;95250.84;;;24.96;59.49
20612;BME280;10465;42.686;23.364;2023-08-20T06:34:15;95244.63;;;24.99;59.36
20612;BME280;10465;42.686;23.364;2023-08-20T06:36:41;95249.25;;;25.05;58.31
20612;BME280;10465;42.686;23.364;2023-08-20T06:39:06;95230.72;;;25.04;57.63
20612;BME280;10465;42.686;23.364;2023-08-20T06:41:32;95231.09;;;25.09;57.45
20612;BME280;10465;42.686;23.364;2023-08-20T06:43:57;95239.59;;;25.19;57.75
20612;BME280;10465;42.686;23.364;2023-08-20T06:46:23;95245.38;;;25.28;57.88
20612;BME280;10465;42.686;23.364;2023-08-20T06:48:48;95253.09;;;25.44;57.79
20612;BME280;10465;42.686;23.364;2023-08-20T06:51:14;95248.03;;;25.56;58.08
20612;BME280;10465;42.686;23.364;2023-08-20T06:53:43;95246.88;;;25.50;57.46
20612;BME280;10465;42.686;23.364;2023-08-20T06:56:08;95255.34;;;25.70;56.85
20612;BME280;10465;42.686;23.364;2023-08-20T06:58:35;95247.63;;;25.69;56.86
20612;BME280;10465;42.686;23.364;2023-08-20T07:01:00;95262.69;;;25.80;56.93
20612;BME280;10465;42.686;23.364;2023-08-20T07:03:33;95253.34;;;25.88;56.48
20612;BME280;10465;42.686;23.364;2023-08-20T07:06:00;95251.00;;;26.01;55.26
20612;BME280;10465;42.686;23.364;2023-08-20T07:08:25;95240.53;;;25.96;54.53
20612;BME280;10465;42.686;23.364;2023-08-20T07:10:50;95255.16;;;26.17;53.71
20612;BME280;10465;42.686;23.364;2023-08-20T07:13:16;95256.78;;;26.07;53.76
20612;BME280;10465;42.686;23.364;2023-08-20T07:15:41;95255.16;;;26.20;53.95
20612;BME280;10465;42.686;23.364;2023-08-20T07:18:07;95253.16;;;26.31;53.43
20612;BME280;10465;42.686;23.364;2023-08-20T07:20:32;95245.78;;;26.28;52.95
20612;BME280;10465;42.686;23.364;2023-08-20T07:22:57;95249.22;;;26.39;52.88
20612;BME280;10465;42.686;23.364;2023-08-20T07:25:23;95252.66;;;26.54;51.83
20612;BME280;10465;42.686;23.364;2023-08-20T07:27:48;95230.97;;;26.44;50.87
20612;BME280;10465;42.686;23.364;2023-08-20T07:30:14;95261.09;;;26.67;50.79
20612;BME280;10465;42.686;23.364;2023-08-20T07:32:40;95240.56;;;26.66;50.24
20612;BME280;10465;42.686;23.364;2023-08-20T07:35:05;95247.41;;;26.81;49.35
20612;BME280;10465;42.686;23.364;2023-08-20T07:37:31;95246.56;;;26.88;49.48
20612;BME280;10465;42.686;23.364;2023-08-20T07:39:56;95252.31;;;26.97;48.25
20612;BME280;10465;42.686;23.364;2023-08-20T07:42:22;95222.09;;;26.92;48.50
20612;BME280;10465;42.686;23.364;2023-08-20T07:44:47;95257.13;;;27.27;48.18
20612;BME280;10465;42.686;23.364;2023-08-20T07:47:12;95242.69;;;27.34;47.86
20612;BME280;10465;42.686;23.364;2023-08-20T07:49:38;95229.84;;;27.34;47.31
20612;BME280;10465;42.686;23.364;2023-08-20T07:52:03;95249.00;;;27.61;47.24
20612;BME280;10465;42.686;23.364;2023-08-20T07:54:29;95251.91;;;27.81;46.67
20612;BME280;10465;42.686;23.364;2023-08-20T07:56:55;95199.34;;;27.54;45.66
20612;BME280;10465;42.686;23.364;2023-08-20T07:59:20;95248.91;;;28.03;45.91
20612;BME280;10465;42.686;23.364;2023-08-20T08:01:46;95197.50;;;27.81;45.40
20612;BME280;10465;42.686;23.364;2023-08-20T08:04:11;95230.41;;;28.21;45.65
20612;BME280;10465;42.686;23.364;2023-08-20T08:06:37;95248.44;;;28.42;44.61
20612;BME280;10465;42.686;23.364;2023-08-20T08:09:18;95209.59;;;28.34;44.52
20612;BME280;10465;42.686;23.364;2023-08-20T08:11:44;95238.78;;;28.65;43.92
20612;BME280;10465;42.686;23.364;2023-08-20T08:14:09;95242.88;;;28.76;43.40
20612;BME280;10465;42.686;23.364;2023-08-20T08:16:37;95246.59;;;28.86;43.24
20612;BME280;10465;42.686;23.364;2023-08-20T08:19:02;95244.22;;;28.88;42.29
20612;BME280;10465;42.686;23.364;2023-08-20T08:21:27;95244.50;;;28.97;41.72
20612;BME280;10465;42.686;23.364;2023-08-20T08:23:53;95242.53;;;28.98;41.89
20612;BME280;10465;42.686;23.364;2023-08-20T08:26:18;95237.38;;;29.03;41.52
20612;BME280;10465;42.686;23.364;2023-08-20T08:28:44;95224.56;;;29.00;41.87
20612;BME280;10465;42.686;23.364;2023-08-20T08:31:10;95228.38;;;29.06;40.31
20612;BME280;10465;42.686;23.364;2023-08-20T08:33:35;95234.81;;;29.16;39.48
20612;BME280;10465;42.686;23.364;2023-08-20T08:36:01;95236.78;;;29.16;39.87
20612;BME280;10465;42.686;23.364;2023-08-20T08:38:26;95242.75;;;29.30;40.34
20612;BME280;10465;42.686;23.364;2023-08-20T08:40:52;95237.56;;;29.36;39.66
20612;BME280;10465;42.686;23.364;2023-08-20T08:43:18;95238.22;;;29.44;39.41
20612;BME280;10465;42.686;23.364;2023-08-20T08:45:45;95237.25;;;29.54;39.60
20612;BME280;10465;42.686;23.364;2023-08-20T08:48:12;95233.19;;;29.66;39.19
20612;BME280;10465;42.686;23.364;2023-08-20T08:50:38;95236.16;;;29.71;38.54
20612;BME280;10465;42.686;23.364;2023-08-20T08:53:04;95242.53;;;29.85;37.66
20612;BME280;10465;42.686;23.364;2023-08-20T08:55:30;95249.75;;;29.95;36.91
20612;BME280;10465;42.686;23.364;2023-08-20T08:57:55;95242.94;;;30.03;36.93
20612;BME280;10465;42.686;23.364;2023-08-20T09:00:21;95243.91;;;30.13;37.15
20612;BME280;10465;42.686;23.364;2023-08-20T09:02:46;95231.78;;;30.14;36.78
20612;BME280;10465;42.686;23.364;2023-08-20T09:05:14;95239.44;;;30.22;36.66
20612;BME280;10465;42.686;23.364;2023-08-20T09:07:44;95237.59;;;30.36;36.71
20612;BME280;10465;42.686;23.364;2023-08-20T09:10:12;95243.22;;;30.45;35.84
20612;BME280;10465;42.686;23.364;2023-08-20T09:12:37;95242.72;;;30.50;35.77
20612;BME280;10465;42.686;23.364;2023-08-20T09:15:03;95239.75;;;30.61;34.46
20612;BME280;10465;42.686;23.364;2023-08-20T09:17:35;95223.13;;;30.55;35.04
20612;BME280;10465;42.686;23.364;2023-08-20T09:20:00;95234.03;;;30.71;35.13
20612;BME280;10465;42.686;23.364;2023-08-20T09:22:26;95226.69;;;30.68;33.81
20612;BME280;10465;42.686;23.364;2023-08-20T09:24:56;95223.97;;;30.68;32.52
20612;BME280;10465;42.686;23.364;2023-08-20T09:27:22;95214.91;;;30.71;32.59
20612;BME280;10465;42.686;23.364;2023-08-20T09:29:50;95241.91;;;30.86;33.59
20612;BME280;10465;42.686;23.364;2023-08-20T09:32:19;95244.81;;;30.95;32.91
20612;BME280;10465;42.686;23.364;2023-08-20T09:34:45;95228.84;;;30.93;32.66
20612;BME280;10465;42.686;23.364;2023-08-20T09:37:12;95238.31;;;31.05;32.94
20612;BME280;10465;42.686;23.364;2023-08-20T09:39:39;95238.66;;;31.07;32.49
20612;BME280;10465;42.686;23.364;2023-08-20T09:42:06;95230.88;;;31.06;33.17
20612;BME280;10465;42.686;23.364;2023-08-20T09:44:33;95218.06;;;31.02;32.77
20612;BME280;10465;42.686;23.364;2023-08-20T09:47:02;95219.44;;;31.11;32.18
20612;BME280;10465;42.686;23.364;2023-08-20T09:49:29;95217.09;;;31.25;32.08
20612;BME280;10465;42.686;23.364;2023-08-20T09:51:57;95221.97;;;31.34;31.67
20612;BME280;10465;42.686;23.364;2023-08-20T09:54:57;95215.91;;;31.26;31.17
20612;BME280;10465;42.686;23.364;2023-08-20T09:57:38;95224.97;;;31.40;29.80
20612;BME280;10465;42.686;23.364;2023-08-20T10:00:05;95218.97;;;31.45;29.01
20612;BME280;10465;42.686;23.364;2023-08-20T10:02:33;95194.88;;;31.40;30.23
20612;BME280;10465;42.686;23.364;2023-08-20T10:04:59;95220.63;;;31.55;30.95
20612;BME280;10465;42.686;23.364;2023-08-20T10:07:28;95182.06;;;31.37;30.52
20612;BME280;10465;42.686;23.364;2023-08-20T10:09:57;95224.19;;;31.68;30.47
20612;BME280;10465;42.686;23.364;2023-08-20T10:12:26;95219.03;;;31.70;30.87
20612;BME280;10465;42.686;23.364;2023-08-20T10:14:52;95216.22;;;31.74;30.66
20612;BME280;10465;42.686;23.364;2023-08-20T10:17:18;95221.50;;;31.81;30.38
20612;BME280;10465;42.686;23.364;2023-08-20T10:19:44;95214.28;;;31.87;30.46
20612;BME280;10465;42.686;23.364;2023-08-20T10:22:09;95177.03;;;31.77;30.30
20612;BME280;10465;42.686;23.364;2023-08-20T10:24:51;95217.50;;;32.11;30.70
20612;BME280;10465;42.686;23.364;2023-08-20T10:27:37;95211.38;;;32.07;31.21
20612;BME280;10465;42.686;23.364;2023-08-20T10:30:08;95222.22;;;32.23;29.77
20612;BME280;10465;42.686;23.364;2023-08-20T10:32:51;95219.38;;;32.27;30.13
20612;BME280;10465;42.686;23.364;2023-08-20T10:35:28;95212.81;;;32.24;29.63
20612;BME280;10465;42.686;23.364;2023-08-20T10:38:06;95208.97;;;32.35;29.77
20612;BME280;10465;42.686;23.364;2023-08-20T10:40:54;95206.81;;;32.42;30.00
20612;BME280;10465;42.686;23.364;2023-08-20T10:43:37;95201.13;;;32.49;29.60
20612;BME280;10465;42.686;23.364;2023-08-20T10:46:19;95197.38;;;32.56;29.42
20612;BME280;10465;42.686;23.364;2023-08-20T10:48:59;95180.50;;;32.45;29.42
20612;BME280;10465;42.686;23.364;2023-08-20T10:51:28;95184.03;;;32.58;29.48
20612;BME280;10465;42.686;23.364;2023-08-20T10:56:45;95197.78;;;32.80;28.91
20612;BME280;10465;42.686;23.364;2023-08-20T10:59:28;95195.28;;;32.86;28.83
20612;BME280;10465;42.686;23.364;2023-08-20T11:01:58;95186.06;;;32.92;28.84
20612;BME280;10465;42.686;23.364;2023-08-20T11:04:28;95195.56;;;33.01;28.52
20612;BME280;10465;42.686;23.364;2023-08-20T11:06:56;95188.75;;;33.05;28.55
20612;BME280;10465;42.686;23.364;2023-08-20T11:09:27;95180.75;;;33.11;28.59
20612;BME280;10465;42.686;23.364;2023-08-20T11:11:53;95184.00;;;33.18;28.64
20612;BME280;10465;42.686;23.364;2023-08-20T11:14:20;95171.59;;;33.27;28.63
20612;BME280;10465;42.686;23.364;2023-08-20T11:16:46;95167.50;;;33.31;28.58
20612;BME280;10465;42.686;23.364;2023-08-20T11:19:13;95156.94;;;33.30;27.99
20612;BME280;10465;42.686;23.364;2023-08-20T11:21:40;95153.78;;;33.31;28.56
20612;BME280;10465;42.686;23.364;2023-08-20T11:24:06;95165.81;;;33.46;28.07
20612;BME280;10465;42.686;23.364;2023-08-20T11:26:38;95161.84;;;33.47;27.89
20612;BME280;10465;42.686;23.364;2023-08-20T11:29:07;95177.63;;;33.56;27.78
20612;BME280;10465;42.686;23.364;2023-08-20T11:31:33;95178.06;;;33.55;27.76
20612;BME280;10465;42.686;23.364;2023-08-20T11:33:58;95147.13;;;33.41;27.55
20612;BME280;10465;42.686;23.364;2023-08-20T11:36:24;95150.13;;;33.47;27.58
20612;BME280;10465;42.686;23.364;2023-08-20T11:38:53;95150.28;;;33.53;28.02
20612;BME280;10465;42.686;23.364;2023-08-20T11:41:23;95165.34;;;33.70;27.81
20612;BME280;10465;42.686;23.364;2023-08-20T11:43:49;95159.41;;;33.71;28.28
20612;BME280;10465;42.686;23.364;2023-08-20T11:46:16;95151.75;;;33.66;27.83
20612;BME280;10465;42.686;23.364;2023-08-20T11:49:00;95172.09;;;33.78;28.20
20612;BME280;10465;42.686;23.364;2023-08-20T11:51:27;95159.59;;;33.77;27.65
20612;BME280;10465;42.686;23.364;2023-08-20T11:53:52;95158.44;;;33.87;27.82
20612;BME280;10465;42.686;23.364;2023-08-20T11:56:18;95164.41;;;33.95;27.64
20612;BME280;10465;42.686;23.364;2023-08-20T11:58:49;95162.34;;;33.99;27.93
20612;BME280;10465;42.686;23.364;2023-08-20T12:01:14;95154.97;;;33.96;27.60
20612;BME280;10465;42.686;23.364;2023-08-20T12:03:40;95156.06;;;33.99;27.60
20612;BME280;10465;42.686;23.364;2023-08-20T12:06:21;95148.38;;;33.93;27.58
20612;BME280;10465;42.686;23.364;2023-08-20T12:08:54;95137.09;;;33.91;28.10
20612;BME280;10465;42.686;23.364;2023-08-20T12:11:32;95152.22;;;33.96;28.37
20612;BME280;10465;42.686;23.364;2023-08-20T12:13:58;95120.00;;;33.87;28.74
20612;BME280;10465;42.686;23.364;2023-08-20T12:16:24;95138.72;;;34.11;28.08
20612;BME280;10465;42.686;23.364;2023-08-20T12:18:50;95128.69;;;33.95;28.45
20612;BME280;10465;42.686;23.364;2023-08-20T12:21:16;95125.03;;;33.89;28.36
20612;BME280;10465;42.686;23.364;2023-08-20T12:23:42;95133.22;;;33.80;28.48
20612;BME280;10465;42.686;23.364;2023-08-20T12:26:08;95133.72;;;33.87;28.54
20612;BME280;10465;42.686;23.364;2023-08-20T12:28:34;95127.84;;;33.98;28.39
20612;BME280;10465;42.686;23.364;2023-08-20T12:31:00;95131.41;;;34.08;28.49
20612;BME280;10465;42.686;23.364;2023-08-20T12:33:25;95129.44;;;34.17;28.63
20612;BME280;10465;42.686;23.364;2023-08-20T12:35:54;95123.22;;;34.26;27.90
20612;BME280;10465;42.686;23.364;2023-08-20T12:38:20;95114.81;;;34.20;28.17
20612;BME280;10465;42.686;23.364;2023-08-20T12:40:45;95125.97;;;34.35;28.38
20612;BME280;10465;42.686;23.364;2023-08-20T12:43:12;95113.16;;;34.32;28.47
20612;BME280;10465;42.686;23.364;2023-08-20T12:45:38;95113.31;;;34.38;28.31
20612;BME280;10465;42.686;23.364;2023-08-20T12:48:04;95117.78;;;34.44;28.23
20612;BME280;10465;42.686;23.364;2023-08-20T12:50:30;95093.47;;;34.34;28.13
20612;BME280;10465;42.686;23.364;2023-08-20T12:52:56;95110.44;;;34.41;27.95
20612;BME280;10465;42.686;23.364;2023-08-20T12:55:21;95130.94;;;34.50;27.70
20612;BME280;10465;42.686;23.364;2023-08-20T12:57:57;95119.59;;;34.48;27.97
20612;BME280;10465;42.686;23.364;2023-08-20T13:00:24;95106.16;;;34.40;27.87